sensor_id;sensor_type;location;lat;lon;timestamp;P1;durP1;ratioP1;P2;durP2;ratioP2
1262;SDS011;62267;50.112;8.704;2023-03-25T00:01:31;1.90;;;1.70;;
1262;SDS011;62267;50.112;8.704;2023-03-25T00:04:00;1.70;;;1.60;;
1262;SDS011;62267;50.112;8.704;2023-03-25T00:06:31;1.40;;;1.30;;
1262;SDS011;62267;50.112;8.704;2023-03-25T00:09:02;4.97;;;2.17;;
1262;SDS011;62267;50.112;8.704;2023-03-25T00:11:29;1.50;;;1.40;;
1262;SDS011;62267;50.112;8.704;2023-03-25T00:13:57;1.20;;;1.20;;
1262;SDS011;62267;50.112;8.704;2023-03-25T00:16:25;2.60;;;2.10;;
1262;SDS011;62267;50.112;8.704;2023-03-25T00:18:53;2.93;;;1.37;;
1262;SDS011;62267;50.112;8.704;2023-03-25T00:21:21;1.50;;;1.40;;
1262;SDS011;62267;50.112;8.704;2023-03-25T00:23:48;1.57;;;1.30;;
1262;SDS011;62267;50.112;8.704;2023-03-25T00:26:16;2.40;;;1.93;;
1262;SDS011;62267;50.112;8.704;2023-03-25T00:28:45;1.63;;;1.53;;
1262;SDS011;62267;50.112;8.704;2023-03-25T00:31:13;4.20;;;1.40;;
1262;SDS011;62267;50.112;8.704;2023-03-25T00:33:41;1.83;;;1.37;;
1262;SDS011;62267;50.112;8.704;2023-03-25T00:36:09;2.10;;;1.80;;
1262;SDS011;62267;50.112;8.704;2023-03-25T00:38:40;1.23;;;1.20;;
1262;SDS011;62267;50.112;8.704;2023-03-25T00:41:13;1.50;;;1.20;;
1262;SDS011;62267;50.112;8.704;2023-03-25T00:43:43;1.33;;;1.20;;
1262;SDS011;62267;50.112;8.704;2023-03-25T00:46:11;2.70;;;1.43;;
1262;SDS011;62267;50.112;8.704;2023-03-25T00:48:38;1.40;;;1.30;;
1262;SDS011;62267;50.112;8.704;2023-03-25T00:51:07;1.73;;;1.60;;
1262;SDS011;62267;50.112;8.704;2023-03-25T00:53:36;1.57;;;1.37;;
1262;SDS011;62267;50.112;8.704;2023-03-25T00:56:04;1.50;;;1.40;;
1262;SDS011;62267;50.112;8.704;2023-03-25T00:58:31;1.40;;;1.30;;
1262;SDS011;62267;50.112;8.704;2023-03-25T01:00:59;2.13;;;1.60;;
1262;SDS011;62267;50.112;8.704;2023-03-25T01:03:28;3.00;;;1.33;;
1262;SDS011;62267;50.112;8.704;2023-03-25T01:05:55;1.50;;;1.40;;
1262;SDS011;62267;50.112;8.704;2023-03-25T01:08:23;1.83;;;1.40;;
1262;SDS011;62267;50.112;8.704;2023-03-25T01:10:57;1.67;;;1.57;;
1262;SDS011;62267;50.112;8.704;2023-03-25T01:13:26;2.40;;;1.70;;
1262;SDS011;62267;50.112;8.704;2023-03-25T01:15:53;2.10;;;1.50;;
1262;SDS011;62267;50.112;8.704;2023-03-25T01:18:21;2.13;;;1.50;;
1262;SDS011;62267;50.112;8.704;2023-03-25T01:20:50;5.03;;;1.70;;
1262;SDS011;62267;50.112;8.704;2023-03-25T01:23:18;1.53;;;1.43;;
1262;SDS011;62267;50.112;8.704;2023-03-25T01:25:45;2.00;;;1.80;;
1262;SDS011;62267;50.112;8.704;2023-03-25T01:28:14;2.17;;;1.73;;
1262;SDS011;62267;50.112;8.704;2023-03-25T01:30:42;1.80;;;1.70;;
1262;SDS011;62267;50.112;8.704;2023-03-25T01:33:09;2.63;;;1.73;;
1262;SDS011;62267;50.112;8.704;2023-03-25T01:35:37;2.23;;;1.80;;
1262;SDS011;62267;50.112;8.704;2023-03-25T01:38:04;2.17;;;1.40;;
1262;SDS011;62267;50.112;8.704;2023-03-25T01:40:32;1.57;;;1.47;;
1262;SDS011;62267;50.112;8.704;2023-03-25T01:43:00;3.20;;;1.80;;
1262;SDS011;62267;50.112;8.704;2023-03-25T01:45:31;2.90;;;1.50;;
1262;SDS011;62267;50.112;8.704;2023-03-25T01:48:07;1.50;;;1.40;;
1262;SDS011;62267;50.112;8.704;2023-03-25T01:50:36;1.83;;;1.43;;
1262;SDS011;62267;50.112;8.704;2023-03-25T01:53:06;1.40;;;1.30;;
1262;SDS011;62267;50.112;8.704;2023-03-25T01:55:35;2.87;;;1.47;;
1262;SDS011;62267;50.112;8.704;2023-03-25T01:58:07;1.60;;;1.40;;
1262;SDS011;62267;50.112;8.704;2023-03-25T02:00:38;3.10;;;2.90;;
1262;SDS011;62267;50.112;8.704;2023-03-25T02:03:06;5.97;;;1.50;;
1262;SDS011;62267;50.112;8.704;2023-03-25T02:05:41;1.60;;;1.50;;
1262;SDS011;62267;50.112;8.704;2023-03-25T02:08:09;3.73;;;1.30;;
1262;SDS011;62267;50.112;8.704;2023-03-25T02:10:37;2.37;;;1.70;;
1262;SDS011;62267;50.112;8.704;2023-03-25T02:13:05;2.57;;;1.50;;
1262;SDS011;62267;50.112;8.704;2023-03-25T02:15:41;4.20;;;1.50;;
1262;SDS011;62267;50.112;8.704;2023-03-25T02:18:18;1.53;;;1.43;;
1262;SDS011;62267;50.112;8.704;2023-03-25T02:23:28;4.23;;;1.70;;
1262;SDS011;62267;50.112;8.704;2023-03-25T02:26:08;2.33;;;1.90;;
1262;SDS011;62267;50.112;8.704;2023-03-25T02:31:25;5.60;;;2.37;;
1262;SDS011;62267;50.112;8.704;2023-03-25T02:34:21;3.23;;;2.17;;
1262;SDS011;62267;50.112;8.704;2023-03-25T02:39:39;2.47;;;1.90;;
1262;SDS011;62267;50.112;8.704;2023-03-25T02:44:47;2.23;;;2.03;;
1262;SDS011;62267;50.112;8.704;2023-03-25T02:47:18;2.83;;;2.47;;
1262;SDS011;62267;50.112;8.704;2023-03-25T02:49:56;2.90;;;2.70;;
1262;SDS011;62267;50.112;8.704;2023-03-25T02:52:27;7.43;;;2.77;;
1262;SDS011;62267;50.112;8.704;2023-03-25T02:54:58;5.03;;;2.00;;
1262;SDS011;62267;50.112;8.704;2023-03-25T02:57:30;2.03;;;1.90;;
1262;SDS011;62267;50.112;8.704;2023-03-25T03:00:00;6.00;;;2.67;;
1262;SDS011;62267;50.112;8.704;2023-03-25T03:02:33;3.13;;;2.00;;
1262;SDS011;62267;50.112;8.704;2023-03-25T03:05:01;2.13;;;1.83;;
1262;SDS011;62267;50.112;8.704;2023-03-25T03:07:33;2.90;;;2.00;;
1262;SDS011;62267;50.112;8.704;2023-03-25T03:17:49;2.67;;;1.80;;
1262;SDS011;62267;50.112;8.704;2023-03-25T03:20:34;1.87;;;1.77;;
1262;SDS011;62267;50.112;8.704;2023-03-25T03:23:08;3.00;;;1.87;;
1262;SDS011;62267;50.112;8.704;2023-03-25T03:25:45;2.93;;;1.80;;
1262;SDS011;62267;50.112;8.704;2023-03-25T03:28:17;1.80;;;1.70;;
1262;SDS011;62267;50.112;8.704;2023-03-25T03:33:29;3.53;;;2.03;;
1262;SDS011;62267;50.112;8.704;2023-03-25T03:35:59;2.63;;;1.83;;
1262;SDS011;62267;50.112;8.704;2023-03-25T03:38:29;1.80;;;1.70;;
1262;SDS011;62267;50.112;8.704;2023-03-25T03:41:03;1.70;;;1.60;;
1262;SDS011;62267;50.112;8.704;2023-03-25T03:43:35;2.57;;;1.70;;
1262;SDS011;62267;50.112;8.704;2023-03-25T03:46:05;5.30;;;1.80;;
1262;SDS011;62267;50.112;8.704;2023-03-25T03:49:08;3.93;;;1.50;;
1262;SDS011;62267;50.112;8.704;2023-03-25T03:54:05;2.90;;;2.10;;
1262;SDS011;62267;50.112;8.704;2023-03-25T03:56:35;1.70;;;1.60;;
1262;SDS011;62267;50.112;8.704;2023-03-25T03:59:09;2.57;;;1.60;;
1262;SDS011;62267;50.112;8.704;2023-03-25T04:01:41;3.70;;;1.40;;
1262;SDS011;62267;50.112;8.704;2023-03-25T04:04:12;2.23;;;1.43;;
1262;SDS011;62267;50.112;8.704;2023-03-25T04:07:03;1.60;;;1.50;;
1262;SDS011;62267;50.112;8.704;2023-03-25T04:12:18;1.57;;;1.47;;
1262;SDS011;62267;50.112;8.704;2023-03-25T04:14:48;1.60;;;1.50;;
1262;SDS011;62267;50.112;8.704;2023-03-25T04:17:16;1.57;;;1.47;;
1262;SDS011;62267;50.112;8.704;2023-03-25T04:19:43;2.20;;;1.40;;
1262;SDS011;62267;50.112;8.704;2023-03-25T04:22:14;3.90;;;1.73;;
1262;SDS011;62267;50.112;8.704;2023-03-25T04:24:44;3.33;;;1.83;;
1262;SDS011;62267;50.112;8.704;2023-03-25T04:27:15;2.10;;;1.80;;
1262;SDS011;62267;50.112;8.704;2023-03-25T04:29:44;3.33;;;2.40;;
1262;SDS011;62267;50.112;8.704;2023-03-25T04:32:14;1.90;;;1.70;;
1262;SDS011;62267;50.112;8.704;2023-03-25T04:34:43;2.13;;;2.00;;
1262;SDS011;62267;50.112;8.704;2023-03-25T04:37:12;1.90;;;1.80;;
1262;SDS011;62267;50.112;8.704;2023-03-25T04:39:39;1.70;;;1.60;;
1262;SDS011;62267;50.112;8.704;2023-03-25T04:42:06;1.80;;;1.70;;
1262;SDS011;62267;50.112;8.704;2023-03-25T04:44:34;2.73;;;1.70;;
1262;SDS011;62267;50.112;8.704;2023-03-25T04:47:05;5.37;;;1.90;;
1262;SDS011;62267;50.112;8.704;2023-03-25T04:49:33;2.20;;;2.00;;
1262;SDS011;62267;50.112;8.704;2023-03-25T04:52:02;3.00;;;1.77;;
1262;SDS011;62267;50.112;8.704;2023-03-25T04:54:30;4.53;;;2.10;;
1262;SDS011;62267;50.112;8.704;2023-03-25T04:56:57;2.30;;;2.00;;
1262;SDS011;62267;50.112;8.704;2023-03-25T04:59:24;4.07;;;2.30;;
1262;SDS011;62267;50.112;8.704;2023-03-25T05:01:52;3.30;;;1.97;;
1262;SDS011;62267;50.112;8.704;2023-03-25T05:04:19;2.37;;;2.17;;
1262;SDS011;62267;50.112;8.704;2023-03-25T05:06:47;3.33;;;1.80;;
1262;SDS011;62267;50.112;8.704;2023-03-25T05:09:18;2.90;;;2.00;;
1262;SDS011;62267;50.112;8.704;2023-03-25T05:11:48;2.50;;;2.23;;
1262;SDS011;62267;50.112;8.704;2023-03-25T05:14:16;5.37;;;2.23;;
1262;SDS011;62267;50.112;8.704;2023-03-25T05:16:44;2.03;;;1.83;;
1262;SDS011;62267;50.112;8.704;2023-03-25T05:19:12;3.50;;;2.10;;
1262;SDS011;62267;50.112;8.704;2023-03-25T05:21:41;1.93;;;1.73;;
1262;SDS011;62267;50.112;8.704;2023-03-25T05:24:09;4.27;;;2.30;;
1262;SDS011;62267;50.112;8.704;2023-03-25T05:26:38;3.67;;;2.30;;
1262;SDS011;62267;50.112;8.704;2023-03-25T05:29:06;4.03;;;2.27;;
1262;SDS011;62267;50.112;8.704;2023-03-25T05:31:34;2.20;;;2.10;;
1262;SDS011;62267;50.112;8.704;2023-03-25T05:34:02;5.60;;;2.20;;
1262;SDS011;62267;50.112;8.704;2023-03-25T05:36:32;5.80;;;2.30;;
1262;SDS011;62267;50.112;8.704;2023-03-25T05:39:01;2.20;;;2.10;;
1262;SDS011;62267;50.112;8.704;2023-03-25T05:41:29;2.60;;;2.40;;
1262;SDS011;62267;50.112;8.704;2023-03-25T05:44:07;4.50;;;2.70;;
1262;SDS011;62267;50.112;8.704;2023-03-25T05:46:35;4.77;;;2.70;;
1262;SDS011;62267;50.112;8.704;2023-03-25T05:49:02;5.30;;;3.10;;
1262;SDS011;62267;50.112;8.704;2023-03-25T05:51:31;2.80;;;2.50;;
1262;SDS011;62267;50.112;8.704;2023-03-25T05:53:59;4.70;;;2.70;;
1262;SDS011;62267;50.112;8.704;2023-03-25T05:56:27;3.20;;;2.87;;
1262;SDS011;62267;50.112;8.704;2023-03-25T05:58:54;3.10;;;2.63;;
1262;SDS011;62267;50.112;8.704;2023-03-25T06:01:22;4.80;;;2.90;;
1262;SDS011;62267;50.112;8.704;2023-03-25T06:03:59;2.73;;;2.53;;
1262;SDS011;62267;50.112;8.704;2023-03-25T06:06:27;4.77;;;2.77;;
1262;SDS011;62267;50.112;8.704;2023-03-25T06:08:55;7.60;;;3.50;;
1262;SDS011;62267;50.112;8.704;2023-03-25T06:11:22;2.40;;;2.20;;
1262;SDS011;62267;50.112;8.704;2023-03-25T06:13:49;3.47;;;3.17;;
1262;SDS011;62267;50.112;8.704;2023-03-25T06:16:17;3.23;;;2.43;;
1262;SDS011;62267;50.112;8.704;2023-03-25T06:18:47;2.30;;;2.10;;
1262;SDS011;62267;50.112;8.704;2023-03-25T06:21:22;6.57;;;2.33;;
1262;SDS011;62267;50.112;8.704;2023-03-25T06:23:52;4.90;;;2.63;;
1262;SDS011;62267;50.112;8.704;2023-03-25T06:26:20;4.20;;;3.50;;
1262;SDS011;62267;50.112;8.704;2023-03-25T06:28:48;2.13;;;2.03;;
1262;SDS011;62267;50.112;8.704;2023-03-25T06:31:16;5.63;;;3.50;;
1262;SDS011;62267;50.112;8.704;2023-03-25T06:33:46;2.47;;;1.83;;
1262;SDS011;62267;50.112;8.704;2023-03-25T06:36:14;4.13;;;2.70;;
1262;SDS011;62267;50.112;8.704;2023-03-25T06:38:47;2.20;;;1.77;;
1262;SDS011;62267;50.112;8.704;2023-03-25T06:41:17;2.93;;;1.87;;
1262;SDS011;62267;50.112;8.704;2023-03-25T06:43:51;2.30;;;2.10;;
1262;SDS011;62267;50.112;8.704;2023-03-25T06:46:37;2.83;;;1.87;;
1262;SDS011;62267;50.112;8.704;2023-03-25T06:49:14;3.53;;;2.10;;
1262;SDS011;62267;50.112;8.704;2023-03-25T06:51:41;1.70;;;1.60;;
1262;SDS011;62267;50.112;8.704;2023-03-25T06:54:08;2.57;;;1.57;;
1262;SDS011;62267;50.112;8.704;2023-03-25T06:56:36;2.57;;;2.20;;
1262;SDS011;62267;50.112;8.704;2023-03-25T06:59:03;4.20;;;2.60;;
1262;SDS011;62267;50.112;8.704;2023-03-25T07:01:31;3.23;;;2.27;;
1262;SDS011;62267;50.112;8.704;2023-03-25T07:03:58;4.17;;;3.77;;
1262;SDS011;62267;50.112;8.704;2023-03-25T07:06:25;3.83;;;3.13;;
1262;SDS011;62267;50.112;8.704;2023-03-25T07:08:52;2.90;;;2.20;;
1262;SDS011;62267;50.112;8.704;2023-03-25T07:11:22;3.33;;;3.00;;
1262;SDS011;62267;50.112;8.704;2023-03-25T07:13:51;3.50;;;2.20;;
1262;SDS011;62267;50.112;8.704;2023-03-25T07:16:19;6.03;;;2.97;;
1262;SDS011;62267;50.112;8.704;2023-03-25T07:18:47;2.70;;;2.10;;
1262;SDS011;62267;50.112;8.704;2023-03-25T07:21:15;2.90;;;2.40;;
1262;SDS011;62267;50.112;8.704;2023-03-25T07:23:43;5.53;;;2.33;;
1262;SDS011;62267;50.112;8.704;2023-03-25T07:26:10;6.60;;;2.33;;
1262;SDS011;62267;50.112;8.704;2023-03-25T07:28:38;8.30;;;3.57;;
1262;SDS011;62267;50.112;8.704;2023-03-25T07:31:07;4.40;;;2.63;;
1262;SDS011;62267;50.112;8.704;2023-03-25T07:33:35;4.00;;;2.50;;
1262;SDS011;62267;50.112;8.704;2023-03-25T07:36:03;7.83;;;2.73;;
1262;SDS011;62267;50.112;8.704;2023-03-25T07:38:30;4.10;;;2.40;;
1262;SDS011;62267;50.112;8.704;2023-03-25T07:40:58;4.07;;;2.50;;
1262;SDS011;62267;50.112;8.704;2023-03-25T07:43:25;7.00;;;3.37;;
1262;SDS011;62267;50.112;8.704;2023-03-25T07:46:03;6.37;;;2.67;;
1262;SDS011;62267;50.112;8.704;2023-03-25T07:48:31;7.93;;;2.57;;
1262;SDS011;62267;50.112;8.704;2023-03-25T07:50:58;4.40;;;2.53;;
1262;SDS011;62267;50.112;8.704;2023-03-25T07:53:26;2.93;;;2.20;;
1262;SDS011;62267;50.112;8.704;2023-03-25T07:55:53;5.80;;;3.70;;
1262;SDS011;62267;50.112;8.704;2023-03-25T07:58:20;8.23;;;2.87;;
1262;SDS011;62267;50.112;8.704;2023-03-25T08:00:47;7.13;;;3.10;;
1262;SDS011;62267;50.112;8.704;2023-03-25T08:03:15;6.93;;;2.90;;
1262;SDS011;62267;50.112;8.704;2023-03-25T08:05:45;6.60;;;3.53;;
1262;SDS011;62267;50.112;8.704;2023-03-25T08:08:13;3.33;;;3.10;;
1262;SDS011;62267;50.112;8.704;2023-03-25T08:10:41;8.10;;;3.03;;
1262;SDS011;62267;50.112;8.704;2023-03-25T08:13:09;8.30;;;3.30;;
1262;SDS011;62267;50.112;8.704;2023-03-25T08:15:37;4.67;;;2.93;;
1262;SDS011;62267;50.112;8.704;2023-03-25T08:18:05;3.60;;;2.63;;
1262;SDS011;62267;50.112;8.704;2023-03-25T08:20:33;9.90;;;3.30;;
1262;SDS011;62267;50.112;8.704;2023-03-25T08:23:01;6.80;;;3.20;;
1262;SDS011;62267;50.112;8.704;2023-03-25T08:25:31;5.80;;;2.90;;
1262;SDS011;62267;50.112;8.704;2023-03-25T08:27:58;7.90;;;2.80;;
1262;SDS011;62267;50.112;8.704;2023-03-25T08:30:26;5.77;;;3.30;;
1262;SDS011;62267;50.112;8.704;2023-03-25T08:32:53;8.13;;;4.23;;
1262;SDS011;62267;50.112;8.704;2023-03-25T08:35:21;6.93;;;3.40;;
1262;SDS011;62267;50.112;8.704;2023-03-25T08:37:49;12.87;;;3.53;;
1262;SDS011;62267;50.112;8.704;2023-03-25T08:40:18;12.30;;;3.60;;
1262;SDS011;62267;50.112;8.704;2023-03-25T08:42:47;9.73;;;3.57;;
1262;SDS011;62267;50.112;8.704;2023-03-25T08:45:14;7.43;;;3.00;;
1262;SDS011;62267;50.112;8.704;2023-03-25T08:47:42;6.73;;;3.57;;
1262;SDS011;62267;50.112;8.704;2023-03-25T08:50:11;5.67;;;3.83;;
1262;SDS011;62267;50.112;8.704;2023-03-25T08:52:38;4.33;;;2.97;;
1262;SDS011;62267;50.112;8.704;2023-03-25T08:55:06;6.57;;;4.43;;
1262;SDS011;62267;50.112;8.704;2023-03-25T08:57:37;10.60;;;4.40;;
1262;SDS011;62267;50.112;8.704;2023-03-25T09:00:04;16.97;;;4.90;;
1262;SDS011;62267;50.112;8.704;2023-03-25T09:02:42;4.40;;;3.00;;
1262;SDS011;62267;50.112;8.704;2023-03-25T09:05:12;8.03;;;4.00;;
1262;SDS011;62267;50.112;8.704;2023-03-25T09:07:41;6.33;;;3.83;;
1262;SDS011;62267;50.112;8.704;2023-03-25T09:10:09;6.13;;;3.60;;
1262;SDS011;62267;50.112;8.704;2023-03-25T09:12:40;7.10;;;3.80;;
1262;SDS011;62267;50.112;8.704;2023-03-25T09:15:08;5.20;;;2.97;;
1262;SDS011;62267;50.112;8.704;2023-03-25T09:17:37;6.83;;;3.20;;
1262;SDS011;62267;50.112;8.704;2023-03-25T09:20:04;10.30;;;3.77;;
1262;SDS011;62267;50.112;8.704;2023-03-25T09:22:37;4.43;;;3.33;;
1262;SDS011;62267;50.112;8.704;2023-03-25T09:25:04;4.23;;;2.93;;
1262;SDS011;62267;50.112;8.704;2023-03-25T09:27:32;10.10;;;4.07;;
1262;SDS011;62267;50.112;8.704;2023-03-25T09:30:00;5.00;;;3.70;;
1262;SDS011;62267;50.112;8.704;2023-03-25T09:32:28;4.40;;;2.57;;
1262;SDS011;62267;50.112;8.704;2023-03-25T09:34:55;7.97;;;3.30;;
1262;SDS011;62267;50.112;8.704;2023-03-25T09:37:23;5.93;;;3.20;;
1262;SDS011;62267;50.112;8.704;2023-03-25T09:39:51;9.03;;;3.40;;
1262;SDS011;62267;50.112;8.704;2023-03-25T09:45:04;8.00;;;2.90;;
1262;SDS011;62267;50.112;8.704;2023-03-25T09:47:38;3.87;;;2.90;;
1262;SDS011;62267;50.112;8.704;2023-03-25T09:50:13;4.53;;;2.97;;
1262;SDS011;62267;50.112;8.704;2023-03-25T09:52:56;6.07;;;3.70;;
1262;SDS011;62267;50.112;8.704;2023-03-25T09:55:27;1.40;;;1.30;;
1262;SDS011;62267;50.112;8.704;2023-03-25T10:00:52;2.27;;;1.80;;
1262;SDS011;62267;50.112;8.704;2023-03-25T10:03:26;4.13;;;1.80;;
1262;SDS011;62267;50.112;8.704;2023-03-25T10:05:58;1.73;;;1.63;;
1262;SDS011;62267;50.112;8.704;2023-03-25T10:11:24;1.90;;;1.53;;
1262;SDS011;62267;50.112;8.704;2023-03-25T10:16:35;5.63;;;1.93;;
1262;SDS011;62267;50.112;8.704;2023-03-25T10:27:10;4.37;;;2.17;;
1262;SDS011;62267;50.112;8.704;2023-03-25T10:29:40;2.70;;;1.70;;
1262;SDS011;62267;50.112;8.704;2023-03-25T10:32:15;2.00;;;1.57;;
1262;SDS011;62267;50.112;8.704;2023-03-25T10:34:44;2.10;;;1.40;;
1262;SDS011;62267;50.112;8.704;2023-03-25T10:37:24;2.03;;;1.40;;
1262;SDS011;62267;50.112;8.704;2023-03-25T10:39:55;2.10;;;1.30;;
1262;SDS011;62267;50.112;8.704;2023-03-25T10:44:51;1.70;;;1.60;;
1262;SDS011;62267;50.112;8.704;2023-03-25T10:47:19;5.47;;;1.90;;
1262;SDS011;62267;50.112;8.704;2023-03-25T10:49:48;1.80;;;1.70;;
1262;SDS011;62267;50.112;8.704;2023-03-25T10:52:16;2.53;;;2.00;;
1262;SDS011;62267;50.112;8.704;2023-03-25T10:54:45;1.73;;;1.50;;
1262;SDS011;62267;50.112;8.704;2023-03-25T10:57:24;1.60;;;1.40;;
1262;SDS011;62267;50.112;8.704;2023-03-25T10:59:57;3.97;;;1.80;;
1262;SDS011;62267;50.112;8.704;2023-03-25T11:02:27;2.50;;;2.10;;
1262;SDS011;62267;50.112;8.704;2023-03-25T11:04:57;2.47;;;1.83;;
1262;SDS011;62267;50.112;8.704;2023-03-25T11:07:27;2.33;;;1.83;;
1262;SDS011;62267;50.112;8.704;2023-03-25T11:10:38;2.50;;;1.77;;
1262;SDS011;62267;50.112;8.704;2023-03-25T11:12:45;1.53;;;1.43;;
1262;SDS011;62267;50.112;8.704;2023-03-25T11:15:22;3.20;;;1.60;;
1262;SDS011;62267;50.112;8.704;2023-03-25T11:18:34;2.40;;;1.60;;
1262;SDS011;62267;50.112;8.704;2023-03-25T11:20:45;4.93;;;2.30;;
1262;SDS011;62267;50.112;8.704;2023-03-25T11:23:17;1.83;;;1.70;;
1262;SDS011;62267;50.112;8.704;2023-03-25T11:25:47;3.13;;;1.83;;
1262;SDS011;62267;50.112;8.704;2023-03-25T11:28:18;4.00;;;2.53;;
1262;SDS011;62267;50.112;8.704;2023-03-25T11:31:09;2.70;;;1.90;;
1262;SDS011;62267;50.112;8.704;2023-03-25T11:33:38;3.30;;;1.60;;
1262;SDS011;62267;50.112;8.704;2023-03-25T11:36:25;3.30;;;2.07;;
1262;SDS011;62267;50.112;8.704;2023-03-25T11:39:02;4.63;;;2.13;;
1262;SDS011;62267;50.112;8.704;2023-03-25T11:41:36;1.90;;;1.80;;
1262;SDS011;62267;50.112;8.704;2023-03-25T11:44:06;5.80;;;3.23;;
1262;SDS011;62267;50.112;8.704;2023-03-25T11:46:33;3.03;;;1.73;;
1262;SDS011;62267;50.112;8.704;2023-03-25T11:49:09;2.00;;;1.80;;
1262;SDS011;62267;50.112;8.704;2023-03-25T11:51:37;4.43;;;2.10;;
1262;SDS011;62267;50.112;8.704;2023-03-25T11:54:07;4.53;;;1.90;;
1262;SDS011;62267;50.112;8.704;2023-03-25T11:56:36;2.93;;;2.13;;
1262;SDS011;62267;50.112;8.704;2023-03-25T12:02:12;2.73;;;2.13;;
1262;SDS011;62267;50.112;8.704;2023-03-25T12:04:53;2.70;;;1.90;;
1262;SDS011;62267;50.112;8.704;2023-03-25T12:07:22;4.20;;;2.00;;
1262;SDS011;62267;50.112;8.704;2023-03-25T12:09:56;3.03;;;1.77;;
1262;SDS011;62267;50.112;8.704;2023-03-25T12:22:47;3.63;;;2.00;;
1262;SDS011;62267;50.112;8.704;2023-03-25T12:28:14;2.07;;;1.87;;
1262;SDS011;62267;50.112;8.704;2023-03-25T12:42:13;2.20;;;1.77;;
1262;SDS011;62267;50.112;8.704;2023-03-25T12:44:53;2.43;;;2.10;;
1262;SDS011;62267;50.112;8.704;2023-03-25T12:47:34;2.30;;;2.10;;
1262;SDS011;62267;50.112;8.704;2023-03-25T12:52:55;1.87;;;1.50;;
1262;SDS011;62267;50.112;8.704;2023-03-25T12:55:37;2.77;;;1.90;;
1262;SDS011;62267;50.112;8.704;2023-03-25T12:58:19;3.30;;;1.80;;
1262;SDS011;62267;50.112;8.704;2023-03-25T13:00:55;2.13;;;1.80;;
1262;SDS011;62267;50.112;8.704;2023-03-25T13:08:52;2.67;;;1.90;;
1262;SDS011;62267;50.112;8.704;2023-03-25T13:11:22;2.33;;;1.40;;
1262;SDS011;62267;50.112;8.704;2023-03-25T13:13:51;1.70;;;1.60;;
1262;SDS011;62267;50.112;8.704;2023-03-25T13:16:20;2.10;;;1.70;;
1262;SDS011;62267;50.112;8.704;2023-03-25T13:18:59;4.20;;;1.97;;
1262;SDS011;62267;50.112;8.704;2023-03-25T13:21:29;4.97;;;4.07;;
1262;SDS011;62267;50.112;8.704;2023-03-25T13:24:00;2.60;;;1.67;;
1262;SDS011;62267;50.112;8.704;2023-03-25T13:26:29;2.60;;;1.83;;
1262;SDS011;62267;50.112;8.704;2023-03-25T13:29:10;7.80;;;2.00;;
1262;SDS011;62267;50.112;8.704;2023-03-25T13:31:39;1.60;;;1.50;;
1262;SDS011;62267;50.112;8.704;2023-03-25T13:34:16;1.60;;;1.50;;
1262;SDS011;62267;50.112;8.704;2023-03-25T13:36:50;1.80;;;1.67;;
1262;SDS011;62267;50.112;8.704;2023-03-25T13:39:20;3.00;;;1.50;;
1262;SDS011;62267;50.112;8.704;2023-03-25T13:41:51;2.27;;;2.10;;
1262;SDS011;62267;50.112;8.704;2023-03-25T13:44:21;1.60;;;1.50;;
1262;SDS011;62267;50.112;8.704;2023-03-25T13:46:53;2.50;;;1.90;;
1262;SDS011;62267;50.112;8.704;2023-03-25T13:51:52;1.60;;;1.50;;
1262;SDS011;62267;50.112;8.704;2023-03-25T13:54:29;3.90;;;1.90;;
1262;SDS011;62267;50.112;8.704;2023-03-25T13:57:22;3.37;;;1.73;;
1262;SDS011;62267;50.112;8.704;2023-03-25T14:05:05;2.23;;;1.90;;
1262;SDS011;62267;50.112;8.704;2023-03-25T14:07:47;5.73;;;1.80;;
1262;SDS011;62267;50.112;8.704;2023-03-25T14:13:04;2.73;;;1.70;;
1262;SDS011;62267;50.112;8.704;2023-03-25T14:15:37;4.17;;;2.00;;
1262;SDS011;62267;50.112;8.704;2023-03-25T14:18:10;2.37;;;2.00;;
1262;SDS011;62267;50.112;8.704;2023-03-25T14:20:39;3.20;;;1.77;;
1262;SDS011;62267;50.112;8.704;2023-03-25T14:23:07;5.63;;;1.90;;
1262;SDS011;62267;50.112;8.704;2023-03-25T14:25:43;6.47;;;2.17;;
1262;SDS011;62267;50.112;8.704;2023-03-25T14:28:14;1.87;;;1.77;;
1262;SDS011;62267;50.112;8.704;2023-03-25T14:30:43;3.57;;;1.83;;
1262;SDS011;62267;50.112;8.704;2023-03-25T14:33:10;2.03;;;1.80;;
1262;SDS011;62267;50.112;8.704;2023-03-25T14:43:37;4.87;;;1.60;;
1262;SDS011;62267;50.112;8.704;2023-03-25T14:49:25;5.30;;;1.80;;
1262;SDS011;62267;50.112;8.704;2023-03-25T14:54:01;2.90;;;2.27;;
1262;SDS011;62267;50.112;8.704;2023-03-25T14:56:32;2.57;;;2.20;;
1262;SDS011;62267;50.112;8.704;2023-03-25T14:59:02;5.27;;;2.20;;
1262;SDS011;62267;50.112;8.704;2023-03-25T15:01:33;2.07;;;1.70;;
1262;SDS011;62267;50.112;8.704;2023-03-25T15:04:07;4.60;;;2.00;;
1262;SDS011;62267;50.112;8.704;2023-03-25T15:06:36;2.50;;;1.97;;
1262;SDS011;62267;50.112;8.704;2023-03-25T15:09:08;2.07;;;1.97;;
1262;SDS011;62267;50.112;8.704;2023-03-25T15:11:39;3.50;;;1.70;;
1262;SDS011;62267;50.112;8.704;2023-03-25T15:14:09;4.13;;;2.20;;
1262;SDS011;62267;50.112;8.704;2023-03-25T15:16:54;3.13;;;1.97;;
1262;SDS011;62267;50.112;8.704;2023-03-25T15:19:24;2.33;;;1.90;;
1262;SDS011;62267;50.112;8.704;2023-03-25T15:24:24;4.10;;;2.10;;
1262;SDS011;62267;50.112;8.704;2023-03-25T15:26:54;3.47;;;1.63;;
1262;SDS011;62267;50.112;8.704;2023-03-25T15:34:44;4.67;;;2.20;;
1262;SDS011;62267;50.112;8.704;2023-03-25T15:40:20;2.20;;;1.87;;
1262;SDS011;62267;50.112;8.704;2023-03-25T15:45:42;2.03;;;1.83;;
1262;SDS011;62267;50.112;8.704;2023-03-25T15:51:03;2.60;;;2.17;;
1262;SDS011;62267;50.112;8.704;2023-03-25T15:58:55;4.97;;;2.00;;
1262;SDS011;62267;50.112;8.704;2023-03-25T16:01:29;2.33;;;2.10;;
1262;SDS011;62267;50.112;8.704;2023-03-25T16:04:10;3.97;;;2.30;;
1262;SDS011;62267;50.112;8.704;2023-03-25T16:06:39;3.90;;;2.10;;
1262;SDS011;62267;50.112;8.704;2023-03-25T16:09:10;2.73;;;1.80;;
1262;SDS011;62267;50.112;8.704;2023-03-25T16:11:42;3.23;;;1.90;;
1262;SDS011;62267;50.112;8.704;2023-03-25T16:14:10;4.43;;;2.13;;
1262;SDS011;62267;50.112;8.704;2023-03-25T16:16:39;6.40;;;2.37;;
1262;SDS011;62267;50.112;8.704;2023-03-25T16:19:08;4.00;;;1.87;;
1262;SDS011;62267;50.112;8.704;2023-03-25T16:21:36;3.33;;;2.20;;
1262;SDS011;62267;50.112;8.704;2023-03-25T16:24:04;2.50;;;2.10;;
1262;SDS011;62267;50.112;8.704;2023-03-25T16:26:34;1.70;;;1.40;;
1262;SDS011;62267;50.112;8.704;2023-03-25T16:29:21;2.47;;;1.80;;
1262;SDS011;62267;50.112;8.704;2023-03-25T16:31:50;2.23;;;2.10;;
1262;SDS011;62267;50.112;8.704;2023-03-25T16:34:18;3.20;;;2.00;;
1262;SDS011;62267;50.112;8.704;2023-03-25T16:36:48;3.47;;;2.40;;
1262;SDS011;62267;50.112;8.704;2023-03-25T16:39:16;2.37;;;1.70;;
1262;SDS011;62267;50.112;8.704;2023-03-25T16:41:45;2.73;;;1.70;;
1262;SDS011;62267;50.112;8.704;2023-03-25T16:44:13;3.17;;;1.70;;
1262;SDS011;62267;50.112;8.704;2023-03-25T16:46:44;2.03;;;1.70;;
1262;SDS011;62267;50.112;8.704;2023-03-25T16:49:19;4.40;;;1.93;;
1262;SDS011;62267;50.112;8.704;2023-03-25T16:51:47;6.80;;;2.17;;
1262;SDS011;62267;50.112;8.704;2023-03-25T16:54:36;2.10;;;1.90;;
1262;SDS011;62267;50.112;8.704;2023-03-25T16:57:15;4.27;;;3.07;;
1262;SDS011;62267;50.112;8.704;2023-03-25T16:59:44;2.97;;;1.90;;
1262;SDS011;62267;50.112;8.704;2023-03-25T17:02:23;3.70;;;1.93;;
1262;SDS011;62267;50.112;8.704;2023-03-25T17:04:50;3.40;;;1.97;;
1262;SDS011;62267;50.112;8.704;2023-03-25T17:07:24;1.90;;;1.40;;
1262;SDS011;62267;50.112;8.704;2023-03-25T17:09:53;2.60;;;2.00;;
1262;SDS011;62267;50.112;8.704;2023-03-25T17:12:22;4.00;;;2.27;;
1262;SDS011;62267;50.112;8.704;2023-03-25T17:14:50;2.47;;;1.80;;
1262;SDS011;62267;50.112;8.704;2023-03-25T17:19:50;2.60;;;2.40;;
1262;SDS011;62267;50.112;8.704;2023-03-25T17:22:30;3.97;;;2.03;;
1262;SDS011;62267;50.112;8.704;2023-03-25T17:25:11;3.03;;;2.30;;
1262;SDS011;62267;50.112;8.704;2023-03-25T17:27:41;3.20;;;2.10;;
1262;SDS011;62267;50.112;8.704;2023-03-25T17:30:16;2.20;;;2.00;;
1262;SDS011;62267;50.112;8.704;2023-03-25T17:32:44;8.13;;;2.30;;
1262;SDS011;62267;50.112;8.704;2023-03-25T17:35:19;2.40;;;1.93;;